sensor_id;sensor_type;location;lat;lon;timestamp;P1;durP1;ratioP1;P2;durP2;ratioP2
78781;SDS011;68126;55.748;48.742;2023-04-03T00:01:37;8.28;;;3.58;;
78781;SDS011;68126;55.748;48.742;2023-04-03T00:07:03;8.78;;;4.30;;
78781;SDS011;68126;55.748;48.742;2023-04-03T00:12:30;9.70;;;4.10;;
78781;SDS011;68126;55.748;48.742;2023-04-03T00:17:55;10.82;;;3.90;;
78781;SDS011;68126;55.748;48.742;2023-04-03T00:23:19;7.95;;;3.83;;
78781;SDS011;68126;55.748;48.742;2023-04-03T00:34:30;8.88;;;4.70;;
78781;SDS011;68126;55.748;48.742;2023-04-03T00:39:54;7.15;;;4.33;;
78781;SDS011;68126;55.748;48.742;2023-04-03T00:51:04;7.40;;;3.77;;
78781;SDS011;68126;55.748;48.742;2023-04-03T00:56:29;6.62;;;3.35;;
78781;SDS011;68126;55.748;48.742;2023-04-03T01:01:56;6.80;;;3.12;;
78781;SDS011;68126;55.748;48.742;2023-04-03T01:18:50;7.87;;;3.90;;
78781;SDS011;68126;55.748;48.742;2023-04-03T01:30:00;7.90;;;3.67;;
78781;SDS011;68126;55.748;48.742;2023-04-03T01:35:26;7.55;;;4.20;;
78781;SDS011;68126;55.748;48.742;2023-04-03T01:40:51;7.50;;;4.72;;
78781;SDS011;68126;55.748;48.742;2023-04-03T01:46:35;7.55;;;3.52;;
78781;SDS011;68126;55.748;48.742;2023-04-03T01:52:00;7.95;;;4.15;;
78781;SDS011;68126;55.748;48.742;2023-04-03T01:57:24;6.20;;;3.70;;
78781;SDS011;68126;55.748;48.742;2023-04-03T02:02:49;7.10;;;3.80;;
78781;SDS011;68126;55.748;48.742;2023-04-03T02:08:14;11.28;;;3.90;;
78781;SDS011;68126;55.748;48.742;2023-04-03T02:13:40;10.40;;;3.52;;
78781;SDS011;68126;55.748;48.742;2023-04-03T02:19:04;10.43;;;3.37;;
78781;SDS011;68126;55.748;48.742;2023-04-03T02:24:29;8.05;;;4.35;;
78781;SDS011;68126;55.748;48.742;2023-04-03T02:29:53;7.08;;;4.40;;
78781;SDS011;68126;55.748;48.742;2023-04-03T02:35:18;8.05;;;3.17;;
78781;SDS011;68126;55.748;48.742;2023-04-03T02:41:04;6.10;;;4.22;;
78781;SDS011;68126;55.748;48.742;2023-04-03T02:46:29;7.95;;;3.05;;
78781;SDS011;68126;55.748;48.742;2023-04-03T02:51:54;7.62;;;3.47;;
78781;SDS011;68126;55.748;48.742;2023-04-03T02:57:18;7.92;;;3.65;;
78781;SDS011;68126;55.748;48.742;2023-04-03T03:02:43;9.20;;;3.05;;
78781;SDS011;68126;55.748;48.742;2023-04-03T03:08:08;7.37;;;3.80;;
78781;SDS011;68126;55.748;48.742;2023-04-03T03:13:33;6.40;;;3.50;;
78781;SDS011;68126;55.748;48.742;2023-04-03T03:18:58;5.40;;;3.60;;
78781;SDS011;68126;55.748;48.742;2023-04-03T03:24:22;11.97;;;3.60;;
78781;SDS011;68126;55.748;48.742;2023-04-03T03:29:47;9.28;;;3.87;;
78781;SDS011;68126;55.748;48.742;2023-04-03T03:35:11;6.28;;;2.62;;
78781;SDS011;68126;55.748;48.742;2023-04-03T03:40:36;6.35;;;3.20;;
78781;SDS011;68126;55.748;48.742;2023-04-03T03:46:01;8.43;;;3.00;;
78781;SDS011;68126;55.748;48.742;2023-04-03T03:51:26;4.92;;;2.40;;
78781;SDS011;68126;55.748;48.742;2023-04-03T03:56:50;4.78;;;2.65;;
78781;SDS011;68126;55.748;48.742;2023-04-03T04:02:16;4.87;;;2.60;;
78781;SDS011;68126;55.748;48.742;2023-04-03T04:07:42;6.30;;;2.47;;
78781;SDS011;68126;55.748;48.742;2023-04-03T04:13:07;5.97;;;2.47;;
78781;SDS011;68126;55.748;48.742;2023-04-03T04:18:32;9.23;;;3.30;;
78781;SDS011;68126;55.748;48.742;2023-04-03T04:23:56;7.65;;;2.65;;
78781;SDS011;68126;55.748;48.742;2023-04-03T04:29:21;9.53;;;2.72;;
78781;SDS011;68126;55.748;48.742;2023-04-03T04:34:46;3.72;;;2.15;;
78781;SDS011;68126;55.748;48.742;2023-04-03T04:40:11;4.20;;;1.67;;
78781;SDS011;68126;55.748;48.742;2023-04-03T04:45:35;5.25;;;2.45;;
78781;SDS011;68126;55.748;48.742;2023-04-03T04:51:00;4.92;;;2.47;;
78781;SDS011;68126;55.748;48.742;2023-04-03T04:56:27;7.92;;;2.05;;
78781;SDS011;68126;55.748;48.742;2023-04-03T05:01:52;4.72;;;2.35;;
78781;SDS011;68126;55.748;48.742;2023-04-03T05:07:16;3.62;;;2.05;;
78781;SDS011;68126;55.748;48.742;2023-04-03T05:12:41;7.80;;;2.17;;
78781;SDS011;68126;55.748;48.742;2023-04-03T05:18:06;5.08;;;2.17;;
78781;SDS011;68126;55.748;48.742;2023-04-03T05:23:31;4.22;;;2.47;;
78781;SDS011;68126;55.748;48.742;2023-04-03T05:28:55;3.27;;;1.72;;
78781;SDS011;68126;55.748;48.742;2023-04-03T05:34:20;7.72;;;2.12;;
78781;SDS011;68126;55.748;48.742;2023-04-03T05:39:46;6.62;;;1.87;;
78781;SDS011;68126;55.748;48.742;2023-04-03T05:45:11;9.28;;;2.12;;
78781;SDS011;68126;55.748;48.742;2023-04-03T05:50:36;5.20;;;2.22;;
78781;SDS011;68126;55.748;48.742;2023-04-03T05:56:03;5.55;;;1.62;;
78781;SDS011;68126;55.748;48.742;2023-04-03T06:01:27;3.17;;;1.70;;
78781;SDS011;68126;55.748;48.742;2023-04-03T06:06:53;3.90;;;1.20;;
78781;SDS011;68126;55.748;48.742;2023-04-03T06:12:18;4.12;;;1.20;;
78781;SDS011;68126;55.748;48.742;2023-04-03T06:17:43;13.95;;;6.67;;
78781;SDS011;68126;55.748;48.742;2023-04-03T06:23:08;3.98;;;1.07;;
78781;SDS011;68126;55.748;48.742;2023-04-03T06:28:32;5.42;;;1.20;;
78781;SDS011;68126;55.748;48.742;2023-04-03T06:33:59;8.33;;;2.17;;
78781;SDS011;68126;55.748;48.742;2023-04-03T06:44:50;4.70;;;1.05;;
78781;SDS011;68126;55.748;48.742;2023-04-03T06:56:19;5.03;;;1.32;;
78781;SDS011;68126;55.748;48.742;2023-04-03T07:01:44;6.85;;;1.50;;
78781;SDS011;68126;55.748;48.742;2023-04-03T07:07:09;5.10;;;1.40;;
78781;SDS011;68126;55.748;48.742;2023-04-03T07:12:34;2.27;;;0.98;;
78781;SDS011;68126;55.748;48.742;2023-04-03T07:17:58;5.47;;;1.55;;
78781;SDS011;68126;55.748;48.742;2023-04-03T07:23:23;2.67;;;0.93;;
78781;SDS011;68126;55.748;48.742;2023-04-03T07:28:48;4.12;;;1.05;;
78781;SDS011;68126;55.748;48.742;2023-04-03T07:34:15;4.08;;;1.27;;
78781;SDS011;68126;55.748;48.742;2023-04-03T07:39:43;2.62;;;1.22;;
78781;SDS011;68126;55.748;48.742;2023-04-03T07:45:08;3.62;;;1.82;;
78781;SDS011;68126;55.748;48.742;2023-04-03T07:50:37;4.30;;;2.52;;
78781;SDS011;68126;55.748;48.742;2023-04-03T07:56:01;6.10;;;1.67;;
78781;SDS011;68126;55.748;48.742;2023-04-03T08:01:26;6.83;;;1.37;;
78781;SDS011;68126;55.748;48.742;2023-04-03T08:06:52;10.80;;;1.92;;
78781;SDS011;68126;55.748;48.742;2023-04-03T08:12:17;3.83;;;1.20;;
78781;SDS011;68126;55.748;48.742;2023-04-03T08:17:42;3.12;;;1.40;;
78781;SDS011;68126;55.748;48.742;2023-04-03T08:23:07;3.42;;;1.65;;
78781;SDS011;68126;55.748;48.742;2023-04-03T08:28:35;4.67;;;1.62;;
78781;SDS011;68126;55.748;48.742;2023-04-03T08:33:59;5.08;;;1.75;;
78781;SDS011;68126;55.748;48.742;2023-04-03T08:39:23;5.42;;;1.77;;
78781;SDS011;68126;55.748;48.742;2023-04-03T08:50:34;3.27;;;1.52;;
78781;SDS011;68126;55.748;48.742;2023-04-03T08:55:59;6.53;;;1.55;;
78781;SDS011;68126;55.748;48.742;2023-04-03T09:07:13;2.98;;;0.82;;
78781;SDS011;68126;55.748;48.742;2023-04-03T09:18:55;9.83;;;1.15;;
78781;SDS011;68126;55.748;48.742;2023-04-03T09:23:48;4.00;;;0.90;;
78781;SDS011;68126;55.748;48.742;2023-04-03T09:45:50;10.45;;;0.75;;
78781;SDS011;68126;55.748;48.742;2023-04-03T09:51:15;5.55;;;0.98;;
78781;SDS011;68126;55.748;48.742;2023-04-03T09:56:40;7.80;;;0.62;;
78781;SDS011;68126;55.748;48.742;2023-04-03T10:07:49;9.70;;;0.70;;
78781;SDS011;68126;55.748;48.742;2023-04-03T10:13:14;8.55;;;0.90;;
78781;SDS011;68126;55.748;48.742;2023-04-03T10:30:17;9.88;;;1.05;;
78781;SDS011;68126;55.748;48.742;2023-04-03T11:04:20;10.05;;;0.82;;
78781;SDS011;68126;55.748;48.742;2023-04-03T11:09:46;12.50;;;0.60;;
78781;SDS011;68126;55.748;48.742;2023-04-03T11:15:13;12.88;;;1.40;;
78781;SDS011;68126;55.748;48.742;2023-04-03T11:20:38;7.67;;;0.40;;
78781;SDS011;68126;55.748;48.742;2023-04-03T11:26:39;11.80;;;0.70;;
78781;SDS011;68126;55.748;48.742;2023-04-03T11:37:21;8.03;;;0.82;;
78781;SDS011;68126;55.748;48.742;2023-04-03T11:53:55;6.20;;;0.82;;
78781;SDS011;68126;55.748;48.742;2023-04-03T11:59:22;5.90;;;0.53;;
78781;SDS011;68126;55.748;48.742;2023-04-03T12:05:23;8.03;;;0.78;;
78781;SDS011;68126;55.748;48.742;2023-04-03T12:10:34;10.55;;;0.90;;
78781;SDS011;68126;55.748;48.742;2023-04-03T12:15:58;9.03;;;0.65;;
78781;SDS011;68126;55.748;48.742;2023-04-03T12:38:41;7.62;;;1.05;;
78781;SDS011;68126;55.748;48.742;2023-04-03T12:49:35;11.00;;;0.85;;
78781;SDS011;68126;55.748;48.742;2023-04-03T12:55:00;13.03;;;1.07;;
78781;SDS011;68126;55.748;48.742;2023-04-03T13:17:46;12.15;;;1.07;;
78781;SDS011;68126;55.748;48.742;2023-04-03T13:23:12;13.15;;;0.57;;
78781;SDS011;68126;55.748;48.742;2023-04-03T13:28:40;14.85;;;0.68;;
78781;SDS011;68126;55.748;48.742;2023-04-03T13:40:11;8.68;;;0.70;;
78781;SDS011;68126;55.748;48.742;2023-04-03T13:45:38;12.15;;;0.95;;
78781;SDS011;68126;55.748;48.742;2023-04-03T13:51:27;10.45;;;0.98;;
78781;SDS011;68126;55.748;48.742;2023-04-03T14:02:38;13.83;;;0.45;;
78781;SDS011;68126;55.748;48.742;2023-04-03T14:08:05;7.67;;;0.82;;
78781;SDS011;68126;55.748;48.742;2023-04-03T14:13:32;14.93;;;1.07;;
78781;SDS011;68126;55.748;48.742;2023-04-03T14:18:56;7.25;;;1.35;;
78781;SDS011;68126;55.748;48.742;2023-04-03T14:24:21;10.03;;;0.72;;
78781;SDS011;68126;55.748;48.742;2023-04-03T14:29:46;12.65;;;1.22;;
78781;SDS011;68126;55.748;48.742;2023-04-03T14:35:11;15.40;;;0.72;;
78781;SDS011;68126;55.748;48.742;2023-04-03T14:41:07;10.28;;;1.02;;
78781;SDS011;68126;55.748;48.742;2023-04-03T14:46:35;14.45;;;1.75;;
78781;SDS011;68126;55.748;48.742;2023-04-03T14:52:00;18.82;;;1.42;;
78781;SDS011;68126;55.748;48.742;2023-04-03T14:57:25;15.25;;;1.02;;
78781;SDS011;68126;55.748;48.742;2023-04-03T15:02:51;13.65;;;1.17;;
78781;SDS011;68126;55.748;48.742;2023-04-03T15:14:09;29.50;;;2.17;;
78781;SDS011;68126;55.748;48.742;2023-04-03T15:19:37;22.20;;;2.27;;
78781;SDS011;68126;55.748;48.742;2023-04-03T15:25:02;17.77;;;1.07;;
78781;SDS011;68126;55.748;48.742;2023-04-03T15:30:27;16.30;;;1.70;;
78781;SDS011;68126;55.748;48.742;2023-04-03T15:35:51;8.70;;;1.45;;
78781;SDS011;68126;55.748;48.742;2023-04-03T15:41:15;16.80;;;2.12;;
78781;SDS011;68126;55.748;48.742;2023-04-03T15:46:40;16.23;;;1.90;;
78781;SDS011;68126;55.748;48.742;2023-04-03T15:52:05;15.65;;;1.50;;
78781;SDS011;68126;55.748;48.742;2023-04-03T15:58:02;13.35;;;2.20;;
78781;SDS011;68126;55.748;48.742;2023-04-03T16:08:23;18.48;;;1.70;;
78781;SDS011;68126;55.748;48.742;2023-04-03T16:13:48;13.35;;;1.60;;
78781;SDS011;68126;55.748;48.742;2023-04-03T16:19:12;16.02;;;2.25;;
78781;SDS011;68126;55.748;48.742;2023-04-03T16:24:37;8.05;;;1.60;;
78781;SDS011;68126;55.748;48.742;2023-04-03T16:30:03;11.73;;;1.57;;
78781;SDS011;68126;55.748;48.742;2023-04-03T16:35:29;15.10;;;3.20;;
78781;SDS011;68126;55.748;48.742;2023-04-03T16:40:53;14.87;;;2.35;;
78781;SDS011;68126;55.748;48.742;2023-04-03T16:46:19;15.28;;;2.30;;
78781;SDS011;68126;55.748;48.742;2023-04-03T16:51:44;13.68;;;2.30;;
78781;SDS011;68126;55.748;48.742;2023-04-03T16:57:09;14.78;;;1.95;;
78781;SDS011;68126;55.748;48.742;2023-04-03T17:02:33;15.80;;;3.17;;
78781;SDS011;68126;55.748;48.742;2023-04-03T17:13:43;11.90;;;1.82;;
78781;SDS011;68126;55.748;48.742;2023-04-03T17:19:10;21.15;;;2.15;;
78781;SDS011;68126;55.748;48.742;2023-04-03T17:24:35;8.80;;;2.27;;
78781;SDS011;68126;55.748;48.742;2023-04-03T17:30:20;11.48;;;2.25;;
78781;SDS011;68126;55.748;48.742;2023-04-03T17:36:04;13.93;;;2.62;;
78781;SDS011;68126;55.748;48.742;2023-04-03T17:42:08;12.23;;;2.17;;
78781;SDS011;68126;55.748;48.742;2023-04-03T17:47:33;13.18;;;2.02;;
78781;SDS011;68126;55.748;48.742;2023-04-03T18:04:15;14.15;;;2.67;;
78781;SDS011;68126;55.748;48.742;2023-04-03T18:27:46;22.20;;;3.15;;
78781;SDS011;68126;55.748;48.742;2023-04-03T18:45:05;12.63;;;2.47;;
78781;SDS011;68126;55.748;48.742;2023-04-03T18:50:30;21.52;;;2.50;;
78781;SDS011;68126;55.748;48.742;2023-04-03T19:20:09;12.15;;;2.42;;
78781;SDS011;68126;55.748;48.742;2023-04-03T19:25:36;10.48;;;1.82;;
78781;SDS011;68126;55.748;48.742;2023-04-03T19:31:02;11.28;;;1.60;;
78781;SDS011;68126;55.748;48.742;2023-04-03T19:36:33;10.03;;;2.05;;
78781;SDS011;68126;55.748;48.742;2023-04-03T19:41:57;12.47;;;2.33;;
78781;SDS011;68126;55.748;48.742;2023-04-03T19:47:41;15.80;;;1.60;;
78781;SDS011;68126;55.748;48.742;2023-04-03T19:53:26;10.08;;;1.82;;
78781;SDS011;68126;55.748;48.742;2023-04-03T19:58:50;12.20;;;1.72;;
78781;SDS011;68126;55.748;48.742;2023-04-03T20:04:16;10.40;;;1.92;;
78781;SDS011;68126;55.748;48.742;2023-04-03T20:09:40;13.05;;;1.80;;
78781;SDS011;68126;55.748;48.742;2023-04-03T20:15:07;10.55;;;1.92;;
78781;SDS011;68126;55.748;48.742;2023-04-03T20:32:02;11.60;;;1.15;;
78781;SDS011;68126;55.748;48.742;2023-04-03T20:37:28;7.78;;;1.57;;
78781;SDS011;68126;55.748;48.742;2023-04-03T20:42:53;6.80;;;1.40;;
78781;SDS011;68126;55.748;48.742;2023-04-03T20:48:18;7.75;;;1.17;;
78781;SDS011;68126;55.748;48.742;2023-04-03T20:53:43;10.55;;;1.02;;
78781;SDS011;68126;55.748;48.742;2023-04-03T20:59:09;7.62;;;1.70;;
78781;SDS011;68126;55.748;48.742;2023-04-03T21:21:29;7.83;;;1.98;;
78781;SDS011;68126;55.748;48.742;2023-04-03T21:26:55;13.32;;;1.42;;
78781;SDS011;68126;55.748;48.742;2023-04-03T21:32:19;9.73;;;1.37;;
78781;SDS011;68126;55.748;48.742;2023-04-03T21:37:44;8.98;;;1.72;;
78781;SDS011;68126;55.748;48.742;2023-04-03T21:43:09;15.90;;;2.90;;
78781;SDS011;68126;55.748;48.742;2023-04-03T21:48:34;8.28;;;1.40;;
78781;SDS011;68126;55.748;48.742;2023-04-03T21:53:58;7.17;;;1.40;;
78781;SDS011;68126;55.748;48.742;2023-04-03T21:59:25;7.95;;;1.17;;
78781;SDS011;68126;55.748;48.742;2023-04-03T22:04:50;12.10;;;1.92;;
78781;SDS011;68126;55.748;48.742;2023-04-03T22:21:28;10.10;;;1.30;;
78781;SDS011;68126;55.748;48.742;2023-04-03T22:26:54;13.22;;;1.60;;
78781;SDS011;68126;55.748;48.742;2023-04-03T22:32:19;9.68;;;1.55;;
78781;SDS011;68126;55.748;48.742;2023-04-03T22:37:44;9.58;;;1.90;;
78781;SDS011;68126;55.748;48.742;2023-04-03T22:43:09;9.33;;;1.65;;
78781;SDS011;68126;55.748;48.742;2023-04-03T22:48:34;7.55;;;1.20;;
78781;SDS011;68126;55.748;48.742;2023-04-03T22:53:59;8.40;;;2.05;;
78781;SDS011;68126;55.748;48.742;2023-04-03T22:59:24;15.95;;;1.80;;
78781;SDS011;68126;55.748;48.742;2023-04-03T23:04:51;13.00;;;1.60;;
78781;SDS011;68126;55.748;48.742;2023-04-03T23:15:42;8.18;;;1.45;;
78781;SDS011;68126;55.748;48.742;2023-04-03T23:21:07;5.45;;;1.50;;
78781;SDS011;68126;55.748;48.742;2023-04-03T23:26:32;4.53;;;1.60;;
78781;SDS011;68126;55.748;48.742;2023-04-03T23:31:56;7.30;;;2.22;;
78781;SDS011;68126;55.748;48.742;2023-04-03T23:37:21;3.85;;;1.52;;
78781;SDS011;68126;55.748;48.742;2023-04-03T23:42:46;9.90;;;2.87;;
78781;SDS011;68126;55.748;48.742;2023-04-03T23:48:11;5.62;;;1.15;;
78781;SDS011;68126;55.748;48.742;2023-04-03T23:53:35;7.08;;;1.90;;
78781;SDS011;68126;55.748;48.742;2023-04-03T23:59:00;5.17;;;1.72;;
